createdAt,value
2022-08-17T00:00:07.346Z,100333.48
2022-08-17T00:02:59.011Z,100334.55
2022-08-17T00:05:26.324Z,100333.91
2022-08-17T00:07:53.055Z,100333.99
2022-08-17T00:10:20.403Z,100332.81
2022-08-17T00:12:47.240Z,100330.06
2022-08-17T00:15:15.128Z,100327.80
2022-08-17T00:17:45.551Z,100329.27
2022-08-17T00:20:13.407Z,100333.02
2022-08-17T00:22:41.801Z,100335.77
2022-08-17T00:25:13.037Z,100331.38
2022-08-17T00:27:40.400Z,100334.93
2022-08-17T00:30:10.653Z,100334.17
2022-08-17T00:33:14.350Z,100327.11
2022-08-17T00:35:31.241Z,100327.41
2022-08-17T00:37:58.574Z,100324.13
2022-08-17T00:40:25.374Z,100330.67
2022-08-17T00:42:53.363Z,100330.36
2022-08-17T00:45:20.953Z,100326.98
2022-08-17T00:47:47.794Z,100323.90
2022-08-17T00:50:18.167Z,100324.33
2022-08-17T00:52:52.569Z,100322.39
2022-08-17T00:55:21.053Z,100322.55
2022-08-17T00:57:55.207Z,100323.70
2022-08-17T01:00:29.174Z,100324.67
2022-08-17T01:03:02.368Z,100321.55
2022-08-17T01:05:31.713Z,100324.26
2022-08-17T01:08:00.293Z,100325.42
2022-08-17T01:10:58.797Z,100326.58
2022-08-17T01:13:36.793Z,100326.90
2022-08-17T01:16:28.337Z,100322.36
2022-08-17T01:19:02.105Z,100329.07
2022-08-17T01:21:47.545Z,100320.54
2022-08-17T01:24:14.955Z,100324.48
2022-08-17T01:26:44.956Z,100329.46
2022-08-17T01:29:12.959Z,100333.27
2022-08-17T01:31:45.216Z,100329.83
2022-08-17T01:34:14.725Z,100330.69
2022-08-17T01:36:46.056Z,100334.22
2022-08-17T01:39:23.554Z,100334.12
2022-08-17T01:41:53.653Z,100340.33
2022-08-17T01:44:21.852Z,100337.54
2022-08-17T01:46:48.831Z,100337.41
2022-08-17T01:49:15.845Z,100333.28
2022-08-17T01:51:42.898Z,100334.30
2022-08-17T01:54:13.954Z,100342.67
2022-08-17T01:56:44.519Z,100341.99
2022-08-17T01:59:15.044Z,100341.80
2022-08-17T02:01:43.531Z,100343.54
2022-08-17T02:04:11.498Z,100343.35
2022-08-17T02:06:44.903Z,100345.98
2022-08-17T02:09:25.291Z,100343.09
2022-08-17T02:11:57.112Z,100343.23
2022-08-17T02:14:25.727Z,100337.70
2022-08-17T02:16:53.445Z,100336.45
2022-08-17T02:19:23.069Z,100336.05
2022-08-17T02:21:51.845Z,100335.66
2022-08-17T02:24:58.356Z,100335.06
2022-08-17T02:27:15.055Z,100333.61
2022-08-17T02:29:42.067Z,100333.13
2022-08-17T02:32:20.926Z,100328.83
2022-08-17T02:34:55.022Z,100328.39
2022-08-17T02:37:22.531Z,100333.03
2022-08-17T02:39:49.175Z,100331.50
2022-08-17T02:42:16.105Z,100333.09
2022-08-17T02:44:43.261Z,100334.98
2022-08-17T02:47:11.148Z,100335.23
2022-08-17T02:49:40.063Z,100330.21
2022-08-17T02:52:08.166Z,100329.27
2022-08-17T02:54:40.154Z,100327.23
2022-08-17T02:57:10.581Z,100327.55
2022-08-17T02:59:39.565Z,100329.34
2022-08-17T03:02:08.706Z,100330.16
2022-08-17T03:04:35.725Z,100333.73
2022-08-17T03:07:04.248Z,100337.52
2022-08-17T03:09:31.391Z,100340.61
2022-08-17T03:12:06.386Z,100334.83
2022-08-17T03:14:35.995Z,100335.66
2022-08-17T03:17:05.706Z,100334.07
2022-08-17T03:19:32.703Z,100337.21
2022-08-17T03:21:59.680Z,100338.45
2022-08-17T03:24:46.582Z,100342.05
2022-08-17T03:27:16.804Z,100339.32
2022-08-17T03:29:43.862Z,100338.07
2022-08-17T03:32:15.825Z,100337.11
2022-08-17T03:34:43.109Z,100336.73
2022-08-17T03:37:10.119Z,100337.46
2022-08-17T03:39:37.049Z,100334.61
2022-08-17T03:42:09.047Z,100333.91
2022-08-17T03:44:58.192Z,100332.80
2022-08-17T03:47:43.943Z,100333.65
2022-08-17T03:50:31.360Z,100330.07
2022-08-17T03:53:17.579Z,100325.66
2022-08-17T03:56:03.152Z,100330.23
2022-08-17T03:58:30.193Z,100332.98
2022-08-17T04:00:59.117Z,100331.55
2022-08-17T04:03:26.090Z,100329.23
2022-08-17T04:05:53.185Z,100330.64
2022-08-17T04:08:20.896Z,100326.62
2022-08-17T04:10:47.957Z,100330.42
2022-08-17T04:13:15.060Z,100333.98
2022-08-17T04:15:51.259Z,100336.45
2022-08-17T04:18:18.557Z,100339.59
2022-08-17T04:20:46.940Z,100336.35
2022-08-17T04:23:17.057Z,100333.63
2022-08-17T04:25:48.223Z,100333.70
2022-08-17T04:28:16.633Z,100337.14
2022-08-17T04:30:45.090Z,100340.16
2022-08-17T04:33:15.581Z,100341.08
2022-08-17T04:35:52.068Z,100340.83
2022-08-17T04:38:21.872Z,100345.39
2022-08-17T04:41:07.944Z,100342.63
2022-08-17T04:43:36.145Z,100345.31
2022-08-17T04:46:08.465Z,100347.00
2022-08-17T04:48:42.623Z,100349.21
2022-08-17T04:51:15.752Z,100352.44
2022-08-17T04:53:45.505Z,100352.11
2022-08-17T04:56:21.841Z,100354.00
2022-08-17T04:58:50.825Z,100359.80
2022-08-17T05:01:23.062Z,100361.96
2022-08-17T05:03:50.324Z,100368.68
2022-08-17T05:06:17.718Z,100368.82
2022-08-17T05:08:44.981Z,100365.33
2022-08-17T05:11:12.495Z,100369.25
2022-08-17T05:13:39.222Z,100370.48
2022-08-17T05:16:09.164Z,100370.33
2022-08-17T05:18:37.249Z,100371.23
2022-08-17T05:21:06.509Z,100371.54
2022-08-17T05:23:42.240Z,100370.14
2022-08-17T05:26:19.883Z,100373.13
2022-08-17T05:28:52.680Z,100374.80
2022-08-17T05:31:21.594Z,100378.23
2022-08-17T05:33:49.529Z,100388.77
2022-08-17T05:36:42.199Z,100388.06
2022-08-17T05:39:04.554Z,100386.20
2022-08-17T05:41:31.458Z,100384.80
2022-08-17T05:43:58.558Z,100387.79
2022-08-17T05:46:28.738Z,100386.15
2022-08-17T05:49:10.959Z,100386.19
2022-08-17T05:51:53.152Z,100384.46
2022-08-17T05:54:50.815Z,100386.40
2022-08-17T05:57:36.134Z,100386.17
2022-08-17T06:00:15.763Z,100389.32
2022-08-17T06:03:07.514Z,100386.09
2022-08-17T06:05:58.399Z,100392.55
2022-08-17T06:08:45.583Z,100388.33
2022-08-17T06:11:37.300Z,100388.05
2022-08-17T06:14:22.155Z,100388.27
2022-08-17T06:16:55.470Z,100391.06
2022-08-17T06:19:47.757Z,100390.02
2022-08-17T06:22:19.239Z,100389.42
2022-08-17T06:24:57.984Z,100385.14
2022-08-17T06:27:48.718Z,100381.80
2022-08-17T06:30:58.427Z,100383.27
2022-08-17T06:33:34.989Z,100384.31
2022-08-17T06:36:10.984Z,100383.65
2022-08-17T06:38:55.678Z,100383.05
2022-08-17T06:41:50.571Z,100379.66
2022-08-17T06:44:49.660Z,100379.04
2022-08-17T06:47:29.370Z,100379.25
2022-08-17T06:50:03.508Z,100381.39
2022-08-17T06:52:47.300Z,100379.98
2022-08-17T06:55:26.400Z,100376.00
2022-08-17T06:57:59.919Z,100374.28
2022-08-17T07:00:33.641Z,100375.95
2022-08-17T07:03:10.451Z,100376.70
2022-08-17T07:05:53.767Z,100377.33
2022-08-17T07:09:01.249Z,100378.05
2022-08-17T07:11:38.090Z,100384.46
2022-08-17T07:14:35.526Z,100382.65
2022-08-17T07:17:09.054Z,100382.49
2022-08-17T07:19:40.602Z,100382.52
2022-08-17T07:22:57.620Z,100379.33
2022-08-17T07:25:28.047Z,100382.70
2022-08-17T07:27:59.749Z,100382.96
2022-08-17T07:30:51.312Z,100384.32
2022-08-17T07:33:28.208Z,100388.31
2022-08-17T07:35:59.383Z,100387.66
2022-08-17T07:38:28.631Z,100388.16
2022-08-17T07:41:02.222Z,100394.55
2022-08-17T07:43:41.614Z,100393.50
2022-08-17T07:49:11.147Z,100391.52
2022-08-17T07:51:45.562Z,100388.30
2022-08-17T07:54:15.511Z,100386.96
2022-08-17T07:56:47.314Z,100385.13
2022-08-17T07:59:27.160Z,100388.98
2022-08-17T08:01:58.354Z,100391.84
2022-08-17T08:04:49.938Z,100396.05
2022-08-17T08:07:27.321Z,100394.71
2022-08-17T08:10:14.048Z,100396.14
2022-08-17T08:13:12.247Z,100396.02
2022-08-17T08:15:53.569Z,100396.34
2022-08-17T08:18:38.678Z,100400.40
2022-08-17T08:21:35.909Z,100402.33
2022-08-17T08:24:40.524Z,100407.80
2022-08-17T08:27:34.038Z,100405.78
2022-08-17T08:30:07.365Z,100404.94
2022-08-17T08:32:59.255Z,100406.78
2022-08-17T08:35:54.315Z,100405.46
2022-08-17T08:38:56.719Z,100413.98
2022-08-17T08:41:51.472Z,100418.40
2022-08-17T08:45:03.953Z,100419.27
2022-08-17T08:47:45.080Z,100415.85
2022-08-17T08:50:37.745Z,100413.59
2022-08-17T08:53:24.409Z,100405.05
2022-08-17T08:56:23.414Z,100411.96
2022-08-17T08:59:02.296Z,100407.27
2022-08-17T09:01:55.057Z,100409.77
2022-08-17T09:05:02.764Z,100415.81
2022-08-17T09:07:36.736Z,100412.88
2022-08-17T09:10:13.810Z,100412.39
2022-08-17T09:12:53.719Z,100410.17
2022-08-17T09:15:27.413Z,100411.09
2022-08-17T09:18:59.955Z,100413.46
2022-08-17T09:21:21.582Z,100415.80
2022-08-17T09:24:00.090Z,100420.19
2022-08-17T09:26:35.102Z,100419.63
2022-08-17T09:29:08.640Z,100417.23
2022-08-17T09:31:48.783Z,100415.35
2022-08-17T09:34:21.170Z,100416.80
2022-08-17T09:36:58.777Z,100413.20
2022-08-17T09:39:39.071Z,100405.42
2022-08-17T09:42:14.897Z,100409.49
2022-08-17T09:44:51.868Z,100404.98
2022-08-17T09:47:45.931Z,100407.11
2022-08-17T09:50:20.163Z,100408.21
2022-08-17T09:53:08.254Z,100403.80
2022-08-17T09:56:09.100Z,100399.32
2022-08-17T09:58:56.310Z,100401.42
2022-08-17T10:01:39.780Z,100399.55
2022-08-17T10:04:20.413Z,100399.15
2022-08-17T10:07:12.263Z,100398.83
2022-08-17T10:09:45.092Z,100402.27
2022-08-17T10:12:38.333Z,100398.10
2022-08-17T10:15:22.678Z,100396.21
2022-08-17T10:18:07.609Z,100395.27
2022-08-17T10:20:46.569Z,100395.11
2022-08-17T10:23:46.711Z,100392.26
2022-08-17T10:26:19.284Z,100382.91
2022-08-17T10:28:52.649Z,100386.83
2022-08-17T10:31:34.866Z,100381.19
2022-08-17T10:34:29.429Z,100372.91
2022-08-17T10:37:19.627Z,100375.02
2022-08-17T10:40:09.992Z,100374.10
2022-08-17T10:42:51.884Z,100376.17
2022-08-17T10:45:40.394Z,100377.91
2022-08-17T10:48:07.593Z,100372.30
2022-08-17T10:50:55.479Z,100367.62
2022-08-17T10:53:40.948Z,100369.51
2022-08-17T10:56:17.764Z,100369.84
2022-08-17T10:58:53.983Z,100368.70
2022-08-17T11:01:33.326Z,100364.91
2022-08-17T11:04:06.028Z,100366.80
2022-08-17T11:07:02.195Z,100361.83
2022-08-17T11:10:16.623Z,100361.71
2022-08-17T11:12:57.351Z,100359.14
2022-08-17T11:15:39.516Z,100357.98
2022-08-17T11:18:44.319Z,100358.96
2022-08-17T11:21:29.948Z,100357.00
2022-08-17T11:24:06.071Z,100355.52
2022-08-17T11:26:36.099Z,100353.42
2022-08-17T11:29:09.579Z,100352.69
2022-08-17T11:31:39.899Z,100349.78
2022-08-17T11:34:13.506Z,100338.91
2022-08-17T11:36:51.933Z,100341.56
2022-08-17T11:39:44.508Z,100343.94
2022-08-17T11:42:48.992Z,100342.41
2022-08-17T11:45:38.584Z,100337.34
2022-08-17T11:48:46.370Z,100342.50
2022-08-17T11:51:46.386Z,100344.86
2022-08-17T11:54:33.205Z,100344.74
2022-08-17T11:57:21.643Z,100344.73
2022-08-17T12:00:02.044Z,100340.13
2022-08-17T12:02:31.427Z,100344.95
2022-08-17T12:05:04.719Z,100339.45
2022-08-17T12:07:49.097Z,100336.43
2022-08-17T12:10:22.734Z,100338.10
2022-08-17T12:12:54.045Z,100334.81
2022-08-17T12:15:35.432Z,100336.12
2022-08-17T12:18:02.381Z,100332.48
2022-08-17T12:20:28.954Z,100334.33
2022-08-17T12:23:34.094Z,100331.45
2022-08-17T12:26:11.856Z,100332.20
2022-08-17T12:28:44.229Z,100328.48
2022-08-17T12:31:20.835Z,100320.34
2022-08-17T12:33:49.922Z,100316.98
2022-08-17T12:36:22.242Z,100317.25
2022-08-17T12:38:57.225Z,100315.68
2022-08-17T12:41:39.104Z,100312.95
2022-08-17T12:44:09.521Z,100314.48
2022-08-17T12:46:50.463Z,100319.46
2022-08-17T12:49:23.036Z,100314.86
2022-08-17T12:51:51.853Z,100311.02
2022-08-17T12:54:50.378Z,100311.17
2022-08-17T12:57:34.582Z,100301.55
2022-08-17T13:00:20.686Z,100297.90
2022-08-17T13:02:54.703Z,100300.74
2022-08-17T13:05:27.651Z,100301.63
2022-08-17T13:07:59.222Z,100292.34
2022-08-17T13:10:34.967Z,100294.64
2022-08-17T13:13:21.515Z,100290.48
2022-08-17T13:15:55.283Z,100287.17
2022-08-17T13:18:39.897Z,100288.69
2022-08-17T13:21:18.935Z,100282.92
2022-08-17T13:24:11.317Z,100284.68
2022-08-17T13:26:54.506Z,100284.85
2022-08-17T13:29:53.101Z,100287.45
2022-08-17T13:32:31.017Z,100275.75
2022-08-17T13:35:14.951Z,100277.45
2022-08-17T13:37:57.818Z,100277.52
2022-08-17T13:40:53.089Z,100279.06
2022-08-17T13:43:49.816Z,100279.52
2022-08-17T13:46:22.410Z,100277.86
2022-08-17T13:49:21.011Z,100273.53
2022-08-17T13:51:51.508Z,100278.52
2022-08-17T13:54:30.245Z,100271.35
2022-08-17T13:57:03.057Z,100270.38
2022-08-17T13:59:53.678Z,100269.41
2022-08-17T14:02:25.903Z,100270.25
2022-08-17T14:04:55.594Z,100267.83
2022-08-17T14:07:29.113Z,100261.45
2022-08-17T14:10:01.086Z,100267.09
2022-08-17T14:12:32.613Z,100266.40
2022-08-17T14:14:59.825Z,100265.24
2022-08-17T14:17:29.082Z,100265.84
2022-08-17T14:19:55.896Z,100262.42
2022-08-17T14:22:32.406Z,100259.75
2022-08-17T14:25:01.788Z,100254.75
2022-08-17T14:27:32.074Z,100254.75
2022-08-17T14:29:59.272Z,100255.73
2022-08-17T14:32:31.951Z,100256.52
2022-08-17T14:34:59.941Z,100259.55
2022-08-17T14:37:28.347Z,100255.94
2022-08-17T14:39:57.073Z,100256.95
2022-08-17T14:42:26.342Z,100259.33
2022-08-17T14:44:55.522Z,100257.41
2022-08-17T14:47:25.087Z,100254.40
2022-08-17T14:49:53.032Z,100254.81
2022-08-17T14:52:22.086Z,100258.13
2022-08-17T14:54:53.316Z,100263.83
2022-08-17T14:57:24.580Z,100272.02
2022-08-17T14:59:55.437Z,100287.34
2022-08-17T15:02:29.648Z,100298.30
2022-08-17T15:05:04.336Z,100302.67
2022-08-17T15:07:34.049Z,100319.25
2022-08-17T15:10:02.142Z,100322.54
2022-08-17T15:12:33.282Z,100315.19
2022-08-17T15:15:05.395Z,100309.23
2022-08-17T15:17:44.929Z,100301.51
2022-08-17T15:20:20.865Z,100303.82
2022-08-17T15:22:55.523Z,100293.89
2022-08-17T15:25:24.212Z,100292.73
2022-08-17T15:27:52.123Z,100298.04
2022-08-17T15:30:19.892Z,100300.35
2022-08-17T15:32:54.030Z,100298.02
2022-08-17T15:35:27.338Z,100293.36
2022-08-17T15:38:11.567Z,100293.30
2022-08-17T15:40:43.117Z,100286.55
2022-08-17T15:43:27.305Z,100285.11
2022-08-17T15:46:22.484Z,100283.08
2022-08-17T15:48:51.952Z,100280.73
2022-08-17T15:51:26.322Z,100281.59
2022-08-17T15:54:04.247Z,100281.54
2022-08-17T15:56:47.463Z,100279.38
2022-08-17T15:59:14.265Z,100278.40
2022-08-17T16:03:12.972Z,100275.06
2022-08-17T16:04:31.035Z,100277.20
2022-08-17T16:06:59.819Z,100275.41
2022-08-17T16:09:27.807Z,100270.98
2022-08-17T16:11:56.062Z,100256.65
2022-08-17T16:14:33.553Z,100247.52
2022-08-17T16:17:03.044Z,100245.52
2022-08-17T16:19:29.874Z,100251.60
2022-08-17T16:21:56.932Z,100266.80
2022-08-17T16:24:23.488Z,100277.60
2022-08-17T16:26:50.278Z,100280.05
2022-08-17T16:29:17.017Z,100281.77
2022-08-17T16:31:43.687Z,100270.31
2022-08-17T16:34:17.766Z,100262.37
2022-08-17T16:36:55.221Z,100261.33
2022-08-17T16:39:28.973Z,100261.25
2022-08-17T16:41:56.174Z,100257.80
2022-08-17T16:44:23.971Z,100256.96
2022-08-17T16:46:50.749Z,100259.86
2022-08-17T16:49:25.765Z,100261.70
2022-08-17T16:52:06.074Z,100263.92
2022-08-17T16:54:35.268Z,100262.30
2022-08-17T16:57:04.878Z,100262.81
2022-08-17T16:59:41.018Z,100259.77
2022-08-17T17:02:17.294Z,100257.28
2022-08-17T17:04:57.671Z,100267.54
2022-08-17T17:07:36.719Z,100272.04
2022-08-17T17:10:12.695Z,100274.23
2022-08-17T17:13:03.660Z,100276.92
2022-08-17T17:15:37.202Z,100267.30
2022-08-17T17:18:07.235Z,100257.95
2022-08-17T17:20:47.737Z,100252.79
2022-08-17T17:23:41.140Z,100249.55
2022-08-17T17:26:28.875Z,100242.74
2022-08-17T17:29:14.677Z,100244.73
2022-08-17T17:32:10.020Z,100243.36
2022-08-17T17:34:39.720Z,100245.44
2022-08-17T17:37:11.923Z,100247.52
2022-08-17T17:39:46.470Z,100246.34
2022-08-17T17:42:20.575Z,100242.73
2022-08-17T17:45:06.787Z,100249.08
2022-08-17T17:47:34.390Z,100251.69
2022-08-17T17:50:02.588Z,100255.10
2022-08-17T17:53:02.206Z,100263.64
2022-08-17T17:55:55.228Z,100269.19
2022-08-17T17:58:29.699Z,100276.02
2022-08-17T18:01:17.283Z,100282.02
2022-08-17T18:04:02.851Z,100284.77
2022-08-17T18:06:46.915Z,100287.90
2022-08-17T18:09:39.721Z,100291.70
2022-08-17T18:12:29.330Z,100290.52
2022-08-17T18:15:18.619Z,100286.26
2022-08-17T18:18:37.766Z,100293.55
2022-08-17T18:21:16.849Z,100301.98
2022-08-17T18:24:04.952Z,100308.27
2022-08-17T18:26:43.797Z,100310.02
2022-08-17T18:29:37.508Z,100312.79
2022-08-17T18:32:14.284Z,100311.00
2022-08-17T18:34:49.701Z,100308.36
2022-08-17T18:37:45.850Z,100295.28
2022-08-17T18:40:22.080Z,100292.81
2022-08-17T18:42:48.942Z,100291.02
2022-08-17T18:45:30.710Z,100292.52
2022-08-17T18:47:57.582Z,100291.70
2022-08-17T18:50:41.227Z,100290.52
2022-08-17T18:53:33.520Z,100295.75
2022-08-17T18:56:23.088Z,100300.75
2022-08-17T18:59:19.852Z,100298.71
2022-08-17T19:05:26.499Z,100298.69
2022-08-17T19:08:07.326Z,100299.60
2022-08-17T19:10:46.478Z,100298.98
2022-08-17T19:13:23.965Z,100294.64
2022-08-17T19:16:18.840Z,100298.95
2022-08-17T19:18:57.974Z,100299.68
2022-08-17T19:21:33.592Z,100294.80
2022-08-17T19:24:13.907Z,100287.05
2022-08-17T19:26:54.159Z,100285.94
2022-08-17T19:29:34.216Z,100283.16
2022-08-17T19:32:01.733Z,100282.38
2022-08-17T19:34:34.555Z,100287.24
2022-08-17T19:37:21.132Z,100292.55
2022-08-17T19:40:08.620Z,100296.55
2022-08-17T19:42:50.341Z,100303.77
2022-08-17T19:45:45.157Z,100297.38
2022-08-17T19:48:38.120Z,100298.80
2022-08-17T19:51:34.290Z,100294.39
2022-08-17T19:54:06.423Z,100293.83
2022-08-17T19:57:05.616Z,100294.92
2022-08-17T19:59:53.854Z,100302.04
2022-08-17T20:02:39.037Z,100307.95
2022-08-17T20:05:15.312Z,100311.33
2022-08-17T20:07:57.294Z,100311.13
2022-08-17T20:10:35.301Z,100312.32
2022-08-17T20:13:08.999Z,100318.63
2022-08-17T20:15:40.520Z,100324.91
2022-08-17T20:18:18.376Z,100328.22
2022-08-17T20:20:50.990Z,100329.11
2022-08-17T20:23:45.472Z,100330.02
2022-08-17T20:26:44.422Z,100334.90
2022-08-17T20:30:01.726Z,100337.40
2022-08-17T20:32:33.710Z,100335.16
2022-08-17T20:35:21.342Z,100333.13
2022-08-17T20:38:02.681Z,100325.55
2022-08-17T20:40:54.462Z,100325.02
2022-08-17T20:43:43.611Z,100325.02
2022-08-17T20:46:32.067Z,100329.15
2022-08-17T20:49:17.673Z,100325.77
2022-08-17T20:52:02.864Z,100321.55
2022-08-17T20:54:41.945Z,100314.92
2022-08-17T20:57:13.756Z,100308.48
2022-08-17T20:59:44.158Z,100312.41
2022-08-17T21:02:20.667Z,100310.30
2022-08-17T21:04:50.730Z,100313.23
2022-08-17T21:07:53.663Z,100313.98
2022-08-17T21:10:26.332Z,100310.08
2022-08-17T21:13:02.028Z,100312.79
2022-08-17T21:16:00.044Z,100314.10
2022-08-17T21:19:04.872Z,100315.32
2022-08-17T21:21:59.522Z,100320.87
2022-08-17T21:24:38.428Z,100319.09
2022-08-17T21:27:05.814Z,100317.38
2022-08-17T21:29:34.010Z,100312.27
2022-08-17T21:32:05.490Z,100314.27
2022-08-17T21:34:44.246Z,100315.79
2022-08-17T21:37:20.244Z,100323.56
2022-08-17T21:39:55.755Z,100327.24
2022-08-17T21:42:26.631Z,100330.74
2022-08-17T21:44:58.021Z,100331.52
2022-08-17T21:47:28.080Z,100337.84
2022-08-17T21:49:56.514Z,100341.05
2022-08-17T21:52:27.092Z,100341.73
2022-08-17T21:54:58.406Z,100343.13
2022-08-17T21:57:28.372Z,100337.59
2022-08-17T21:59:58.638Z,100334.09
2022-08-17T22:02:35.225Z,100332.96
2022-08-17T22:05:03.022Z,100337.17
2022-08-17T22:07:40.159Z,100336.20
2022-08-17T22:10:26.580Z,100334.66
2022-08-17T22:13:16.735Z,100330.72
2022-08-17T22:15:47.622Z,100327.52
2022-08-17T22:18:26.859Z,100331.91
2022-08-17T22:20:57.150Z,100334.81
2022-08-17T22:23:49.852Z,100334.96
2022-08-17T22:26:18.565Z,100328.90
2022-08-17T22:28:50.809Z,100333.11
2022-08-17T22:31:20.834Z,100333.45
2022-08-17T22:34:04.475Z,100335.29
2022-08-17T22:36:33.657Z,100340.55
2022-08-17T22:39:04.693Z,100342.53
2022-08-17T22:41:41.202Z,100348.19
2022-08-17T22:44:23.648Z,100349.83
2022-08-17T22:46:55.617Z,100351.37
2022-08-17T22:49:29.240Z,100350.27
2022-08-17T22:52:10.016Z,100355.20
2022-08-17T22:54:55.205Z,100356.95
2022-08-17T22:57:42.120Z,100363.31
2022-08-17T23:00:39.468Z,100368.80
2022-08-17T23:03:27.033Z,100373.41
2022-08-17T23:06:11.313Z,100378.19
2022-08-17T23:08:50.152Z,100378.63
2022-08-17T23:11:17.141Z,100384.79
2022-08-17T23:13:44.371Z,100392.29
2022-08-17T23:16:11.545Z,100407.77
2022-08-17T23:18:38.915Z,100408.84
2022-08-17T23:21:09.092Z,100400.81
2022-08-17T23:23:40.462Z,100396.14
2022-08-17T23:26:11.355Z,100400.99
2022-08-17T23:28:40.963Z,100393.80
2022-08-17T23:31:16.750Z,100392.23
2022-08-17T23:33:43.690Z,100394.67
2022-08-17T23:36:15.353Z,100390.54
2022-08-17T23:38:46.653Z,100387.33
2022-08-17T23:41:20.420Z,100385.80
2022-08-17T23:43:50.570Z,100387.42
2022-08-17T23:46:18.051Z,100384.96
2022-08-17T23:48:44.803Z,100390.22
2022-08-17T23:51:18.984Z,100388.42
2022-08-17T23:53:50.088Z,100385.05
2022-08-17T23:56:23.561Z,100383.84
2022-08-17T23:58:50.390Z,100376.98
